Time;durP1;ratioP1;P1;durP2;ratioP2;P2;SDS_P1;SDS_P2;PMS_P1;PMS_P2;Temp;Humidity;BMP_temperature;BMP_pressure;BME280_temperature;BME280_humidity;BME280_pressure;Samples;Min_cycle;Max_cycle;Signal;HPM_P1;HPM_P2
2023/08/22 00:00:30;;;;;;;9.47;8.67;;;23.90;99.90;;;;;;5024237;28;21228;-77
2023/08/22 00:02:59;;;;;;;11.10;7.60;;;23.40;99.90;;;;;;5028778;28;21051;-77
2023/08/22 00:05:26;;;;;;;8.60;7.90;;;23.10;99.90;;;;;;5030068;28;20450;-78
2023/08/22 00:07:51;;;;;;;8.73;7.90;;;23.40;99.90;;;;;;5031271;28;20472;-77
2023/08/22 00:10:17;;;;;;;8.77;7.83;;;23.40;99.90;;;;;;5029636;28;20452;-77
2023/08/22 00:12:44;;;;;;;8.77;8.00;;;23.30;99.90;;;;;;5033647;28;20646;-77
2023/08/22 00:15:12;;;;;;;10.07;9.17;;;23.30;99.90;;;;;;5032129;28;20436;-77
2023/08/22 00:17:38;;;;;;;9.60;8.80;;;23.30;99.90;;;;;;5029794;28;20460;-78
2023/08/22 00:20:07;;;;;;;8.30;7.60;;;23.30;99.90;;;;;;5036596;28;20924;-79
2023/08/22 00:22:36;;;;;;;9.30;8.40;;;23.20;99.90;;;;;;5033038;28;20449;-77
2023/08/22 00:25:02;;;;;;;8.43;7.70;;;23.10;99.90;;;;;;5033241;28;20444;-77
2023/08/22 00:27:28;;;;;;;8.73;7.83;;;23.10;99.90;;;;;;5031936;28;20501;-78
2023/08/22 00:29:56;;;;;;;8.77;8.03;;;23.10;99.90;;;;;;5031346;28;20472;-77
2023/08/22 00:32:22;;;;;;;8.30;7.60;;;23.10;99.90;;;;;;5028542;28;20472;-78
2023/08/22 00:34:48;;;;;;;8.90;8.00;;;23.10;99.90;;;;;;5031065;28;20784;-76
2023/08/22 00:37:13;;;;;;;8.33;7.73;;;23.10;99.90;;;;;;5029185;28;20764;-78
2023/08/22 00:39:39;;;;;;;9.30;8.40;;;23.10;99.90;;;;;;5031179;28;20667;-78
2023/08/22 00:42:05;;;;;;;8.10;7.40;;;23.10;99.90;;;;;;5028208;28;20182;-77
2023/08/22 00:44:30;;;;;;;9.33;8.53;;;23.10;99.90;;;;;;5027790;28;20797;-77
2023/08/22 00:46:56;;;;;;;8.63;7.90;;;23.00;99.90;;;;;;5028810;28;20238;-77
2023/08/22 00:49:21;;;;;;;8.77;8.07;;;23.00;99.90;;;;;;5027425;28;20194;-78
2023/08/22 00:51:47;;;;;;;8.90;8.03;;;22.90;99.90;;;;;;5031517;28;20576;-76
2023/08/22 00:54:14;;;;;;;7.83;7.17;;;22.90;99.90;;;;;;5029196;28;20222;-76
2023/08/22 00:56:41;;;;;;;8.27;7.57;;;22.90;99.90;;;;;;5025874;28;20213;-78
2023/08/22 00:59:08;;;;;;;8.30;7.50;;;22.90;99.90;;;;;;5043201;23;22069;-69
2023/08/22 01:01:33;;;;;;;8.70;7.90;;;22.80;99.90;;;;;;5048799;28;20447;-69
2023/08/22 01:03:59;;;;;;;9.00;8.10;;;22.80;99.90;;;;;;5050735;28;20807;-70
2023/08/22 01:06:41;;;;;;;9.13;8.30;;;22.70;99.90;;;;;;5049723;28;20774;-69
2023/08/22 01:09:18;;;;;;;9.13;7.70;;;22.70;99.90;;;;;;5048941;28;20213;-70
2023/08/22 01:11:47;;;;;;;8.90;8.10;;;22.70;99.90;;;;;;5050189;28;20793;-70
2023/08/22 01:14:19;;;;;;;8.77;7.93;;;22.70;99.90;;;;;;5049484;28;20967;-68
2023/08/22 01:16:45;;;;;;;7.80;7.20;;;22.70;99.90;;;;;;5046610;28;20546;-68
2023/08/22 01:19:13;;;;;;;9.87;8.37;;;22.70;99.90;;;;;;5047765;28;20493;-68
2023/08/22 01:21:50;;;;;;;9.00;8.00;;;22.60;99.90;;;;;;5047645;28;20484;-69
2023/08/22 01:24:16;;;;;;;8.47;7.83;;;22.60;99.90;;;;;;5049995;28;20471;-69
2023/08/22 01:26:43;;;;;;;9.10;8.30;;;22.60;99.90;;;;;;5048728;28;20487;-68
2023/08/22 01:29:11;;;;;;;9.13;8.43;;;22.60;99.90;;;;;;5046901;28;21046;-70
2023/08/22 01:31:41;;;;;;;8.43;7.63;;;22.10;99.90;;;;;;5050134;28;20440;-68
2023/08/22 01:34:32;;;;;;;8.73;7.93;;;22.60;99.90;;;;;;5048124;28;20439;-68
2023/08/22 01:36:59;;;;;;;8.83;7.97;;;22.50;99.90;;;;;;5048358;28;20547;-68
2023/08/22 01:39:29;;;;;;;8.17;7.47;;;22.50;99.90;;;;;;5047653;28;20955;-68
2023/08/22 01:41:57;;;;;;;8.40;7.60;;;22.50;99.90;;;;;;5049507;28;20438;-69
2023/08/22 01:44:24;;;;;;;9.23;7.47;;;22.60;99.90;;;;;;5050577;28;20509;-69
2023/08/22 01:46:49;;;;;;;9.47;8.37;;;22.60;99.90;;;;;;5046450;28;20504;-70
2023/08/22 01:49:15;;;;;;;8.57;7.80;;;22.50;99.90;;;;;;5044887;28;20588;-68
2023/08/22 01:51:41;;;;;;;9.17;8.47;;;22.50;99.90;;;;;;5049007;28;20235;-68
2023/08/22 01:54:06;;;;;;;9.13;8.00;;;22.50;99.90;;;;;;5051008;28;20180;-68
2023/08/22 01:56:32;;;;;;;7.97;7.27;;;22.50;99.90;;;;;;5043396;28;20209;-69
2023/08/22 01:58:58;;;;;;;8.60;7.67;;;22.50;99.90;;;;;;5046592;28;20220;-68
2023/08/22 02:01:24;;;;;;;8.60;7.90;;;22.50;99.90;;;;;;5050789;28;20454;-68
2023/08/22 02:03:50;;;;;;;8.77;7.90;;;22.50;99.90;;;;;;5045629;28;20524;-68
2023/08/22 02:06:16;;;;;;;8.50;7.67;;;22.50;99.90;;;;;;5048360;28;20975;-68
2023/08/22 02:08:41;;;;;;;8.97;8.17;;;22.40;99.90;;;;;;5046630;28;20451;-70
2023/08/22 02:11:07;;;;;;;8.40;7.60;;;22.40;99.90;;;;;;5050959;28;20724;-68
2023/08/22 02:13:33;;;;;;;8.27;7.40;;;22.40;99.90;;;;;;5049721;28;20181;-68
2023/08/22 02:15:59;;;;;;;7.90;7.30;;;22.40;99.90;;;;;;5048395;28;20807;-68
2023/08/22 02:18:24;;;;;;;8.13;7.53;;;22.40;99.90;;;;;;5044879;28;20720;-70
2023/08/22 02:20:54;;;;;;;8.33;7.60;;;22.30;99.90;;;;;;5046960;28;20447;-70
2023/08/22 02:23:20;;;;;;;10.30;7.60;;;22.30;99.90;;;;;;5048270;28;20189;-70
2023/08/22 02:25:46;;;;;;;10.33;7.37;;;22.30;99.90;;;;;;5045932;28;20451;-70
2023/08/22 02:28:12;;;;;;;8.43;7.73;;;22.30;99.90;;;;;;5049830;28;20267;-69
2023/08/22 02:30:38;;;;;;;9.53;8.20;;;22.30;99.90;;;;;;5050841;28;20447;-69
2023/08/22 02:33:04;;;;;;;8.43;7.67;;;22.20;99.90;;;;;;5045995;28;20451;-69
2023/08/22 02:35:29;;;;;;;8.80;8.00;;;22.20;99.90;;;;;;5051153;28;20294;-69
2023/08/22 02:37:55;;;;;;;8.83;8.00;;;22.20;99.90;;;;;;5045905;28;20932;-70
2023/08/22 02:40:20;;;;;;;10.50;8.37;;;22.20;99.90;;;;;;5047869;28;20194;-70
2023/08/22 02:42:46;;;;;;;8.40;7.70;;;22.10;99.90;;;;;;5046617;28;20177;-69
2023/08/22 02:45:11;;;;;;;8.10;7.30;;;22.20;99.90;;;;;;5048433;28;20208;-69
2023/08/22 02:47:37;;;;;;;8.33;7.53;;;22.20;99.90;;;;;;5047150;28;20666;-70
2023/08/22 02:50:04;;;;;;;7.47;6.87;;;22.10;99.90;;;;;;5048057;28;20182;-70
2023/08/22 02:52:30;;;;;;;7.87;7.27;;;22.10;99.90;;;;;;5048448;28;20189;-69
2023/08/22 02:54:56;;;;;;;7.60;7.00;;;22.00;99.90;;;;;;5048667;28;20827;-70
2023/08/22 02:57:21;;;;;;;8.80;7.30;;;22.00;99.90;;;;;;5046981;28;20475;-70
2023/08/22 02:59:47;;;;;;;8.60;7.77;;;22.10;99.90;;;;;;5043644;28;20259;-70
2023/08/22 03:02:13;;;;;;;8.20;7.50;;;22.00;99.90;;;;;;5044548;28;20542;-70
2023/08/22 03:04:38;;;;;;;9.00;8.20;;;22.00;99.90;;;;;;5051638;28;20185;-69
2023/08/22 03:07:05;;;;;;;8.00;7.30;;;22.00;99.90;;;;;;5048273;28;20468;-68
2023/08/22 03:09:31;;;;;;;7.63;6.90;;;22.00;99.90;;;;;;5047385;28;20272;-69
2023/08/22 03:11:57;;;;;;;8.00;7.30;;;22.00;99.90;;;;;;5049914;28;20512;-68
2023/08/22 03:14:24;;;;;;;8.70;7.90;;;22.00;99.90;;;;;;5049083;28;21080;-68
2023/08/22 03:16:49;;;;;;;8.83;7.70;;;21.90;99.90;;;;;;5045346;28;20206;-69
2023/08/22 03:19:15;;;;;;;8.37;7.57;;;21.80;99.90;;;;;;5046782;28;20451;-70
2023/08/22 03:21:40;;;;;;;8.00;7.30;;;21.80;99.90;;;;;;5046250;28;20192;-70
2023/08/22 03:24:06;;;;;;;9.03;7.10;;;21.80;99.90;;;;;;5044469;28;20189;-69
2023/08/22 03:26:32;;;;;;;7.93;7.23;;;21.80;99.90;;;;;;5047746;28;20236;-69
2023/08/22 03:28:57;;;;;;;8.40;7.60;;;21.80;99.90;;;;;;5048305;28;20451;-70
2023/08/22 03:31:25;;;;;;;8.57;7.70;;;21.70;99.90;;;;;;5049016;28;20347;-69
2023/08/22 03:33:51;;;;;;;8.13;7.40;;;21.70;99.90;;;;;;5046519;28;20208;-70
2023/08/22 03:36:17;;;;;;;7.90;7.20;;;21.60;99.90;;;;;;5043551;28;20521;-70
2023/08/22 03:38:43;;;;;;;7.40;6.80;;;21.60;99.90;;;;;;5048502;28;20444;-69
2023/08/22 03:41:08;;;;;;;7.20;6.50;;;21.60;99.90;;;;;;5043576;28;20192;-69
2023/08/22 03:43:34;;;;;;;8.67;7.83;;;21.60;99.90;;;;;;5049114;28;20193;-69
2023/08/22 03:45:59;;;;;;;8.57;7.77;;;21.60;99.90;;;;;;5050412;28;20262;-70
2023/08/22 03:48:25;;;;;;;7.63;6.93;;;21.70;99.90;;;;;;5047130;28;20645;-70
2023/08/22 03:50:50;;;;;;;8.37;7.67;;;21.60;99.90;;;;;;5039375;28;20553;-69
2023/08/22 03:53:16;;;;;;;8.30;7.70;;;21.50;99.90;;;;;;5049866;28;20201;-69
2023/08/22 03:55:43;;;;;;;7.53;6.77;;;22.00;99.90;;;;;;5044945;28;20741;-69
2023/08/22 03:58:10;;;;;;;8.97;8.27;;;21.60;99.90;;;;;;5045414;28;20185;-69
2023/08/22 04:00:36;;;;;;;7.70;7.00;;;21.50;99.90;;;;;;5046142;28;20478;-69
2023/08/22 04:03:02;;;;;;;8.00;7.23;;;21.50;99.90;;;;;;5047369;28;20447;-69
2023/08/22 04:05:27;;;;;;;7.97;7.17;;;21.50;99.90;;;;;;5049788;28;20196;-68
2023/08/22 04:07:53;;;;;;;8.20;7.40;;;21.40;99.90;;;;;;5047015;28;20739;-68
2023/08/22 04:10:19;;;;;;;8.73;7.87;;;21.50;99.90;;;;;;5048743;28;20188;-70
2023/08/22 04:12:45;;;;;;;9.87;8.93;;;21.50;99.90;;;;;;5045933;28;20193;-70
2023/08/22 04:15:11;;;;;;;9.10;8.33;;;21.40;99.90;;;;;;5049468;28;21040;-68
2023/08/22 04:17:40;;;;;;;7.50;6.83;;;21.40;99.90;;;;;;5039947;28;20209;-69
2023/08/22 04:20:10;;;;;;;7.80;7.20;;;21.30;99.90;;;;;;5046172;28;20451;-69
2023/08/22 04:22:37;;;;;;;8.17;7.47;;;21.30;99.90;;;;;;5043531;28;20827;-69
2023/08/22 04:25:04;;;;;;;8.27;7.47;;;21.30;99.90;;;;;;5044292;28;20581;-69
2023/08/22 04:27:30;;;;;;;8.00;7.20;;;21.30;99.90;;;;;;5043703;28;20487;-72
2023/08/22 04:29:55;;;;;;;8.50;7.73;;;21.40;99.90;;;;;;5046738;28;20444;-71
2023/08/22 04:32:21;;;;;;;7.77;7.10;;;21.40;99.90;;;;;;5047372;28;20440;-71
2023/08/22 04:34:47;;;;;;;10.50;7.90;;;21.50;99.90;;;;;;5043143;28;20502;-72
2023/08/22 04:37:13;;;;;;;8.50;7.67;;;21.60;99.90;;;;;;5041302;28;20464;-72
2023/08/22 04:39:38;;;;;;;8.23;7.43;;;21.60;99.90;;;;;;5045490;28;20658;-70
2023/08/22 04:42:04;;;;;;;7.90;7.20;;;21.70;99.90;;;;;;5046828;28;20646;-72
2023/08/22 04:44:30;;;;;;;8.03;7.30;;;21.70;99.90;;;;;;5044012;28;20188;-72
2023/08/22 04:46:56;;;;;;;9.07;7.17;;;21.70;99.90;;;;;;5039188;28;20198;-73
2023/08/22 04:49:21;;;;;;;8.43;7.73;;;21.70;99.90;;;;;;5047785;28;20178;-72
2023/08/22 04:51:47;;;;;;;9.37;7.67;;;21.80;99.90;;;;;;5046896;28;20436;-71
2023/08/22 04:54:12;;;;;;;8.80;7.23;;;21.80;99.90;;;;;;5050932;28;20654;-72
2023/08/22 04:56:38;;;;;;;7.43;6.80;;;21.80;99.90;;;;;;5045867;28;20208;-73
2023/08/22 04:59:04;;;;;;;8.37;7.57;;;21.90;99.90;;;;;;5048523;28;20196;-70
2023/08/22 05:01:29;;;;;;;8.93;7.90;;;21.90;99.90;;;;;;5046984;28;20200;-71
2023/08/22 05:03:55;;;;;;;9.30;7.80;;;21.90;99.90;;;;;;5045301;28;20188;-69
2023/08/22 05:06:20;;;;;;;8.63;7.83;;;21.90;99.90;;;;;;5045810;28;20268;-70
2023/08/22 05:08:46;;;;;;;9.27;7.83;;;21.90;99.90;;;;;;5049382;28;20550;-72
2023/08/22 05:11:14;;;;;;;8.90;7.40;;;21.90;99.90;;;;;;5049909;28;20185;-71
2023/08/22 05:13:40;;;;;;;7.80;7.00;;;21.90;99.90;;;;;;5047303;28;20321;-73
2023/08/22 05:16:05;;;;;;;7.57;7.07;;;22.00;99.90;;;;;;5045377;28;20464;-72
2023/08/22 05:18:31;;;;;;;7.87;7.20;;;22.00;99.90;;;;;;5047840;28;20193;-70
2023/08/22 05:20:57;;;;;;;9.10;8.30;;;22.10;99.90;;;;;;5047393;28;20214;-72
2023/08/22 05:23:30;;;;;;;8.27;7.30;;;22.20;99.90;;;;;;5044711;28;20182;-70
2023/08/22 05:25:57;;;;;;;7.80;7.10;;;22.20;99.90;;;;;;5050927;28;20201;-70
2023/08/22 05:28:23;;;;;;;8.40;7.60;;;22.20;99.90;;;;;;5050597;28;20472;-70
2023/08/22 05:30:48;;;;;;;7.83;7.10;;;22.30;99.90;;;;;;5048960;28;20677;-74
2023/08/22 05:33:14;;;;;;;7.70;7.00;;;22.30;99.90;;;;;;5047931;28;20193;-71
2023/08/22 05:35:39;;;;;;;7.97;7.27;;;22.40;99.90;;;;;;5049147;28;20182;-74
2023/08/22 05:38:05;;;;;;;8.47;7.27;;;22.50;99.90;;;;;;5051590;28;20189;-71
2023/08/22 05:40:31;;;;;;;7.30;6.70;;;22.50;99.90;;;;;;5049963;28;20193;-70
2023/08/22 05:42:56;;;;;;;7.90;7.10;;;22.60;99.90;;;;;;5047841;28;20188;-73
2023/08/22 05:45:22;;;;;;;7.63;6.97;;;22.80;99.90;;;;;;5050929;28;20193;-70
2023/08/22 05:47:47;;;;;;;6.73;6.13;;;22.80;99.90;;;;;;5046601;28;20582;-71
2023/08/22 05:50:13;;;;;;;8.70;6.77;;;22.90;99.90;;;;;;5048313;28;20219;-73
2023/08/22 05:52:39;;;;;;;6.93;6.33;;;23.00;99.90;;;;;;5050784;28;20185;-72
2023/08/22 05:55:06;;;;;;;6.90;6.23;;;23.10;99.90;;;;;;5049698;28;20444;-72
2023/08/22 05:57:32;;;;;;;6.57;6.07;;;23.20;99.90;;;;;;5045219;28;20205;-72
2023/08/22 05:59:59;;;;;;;7.07;6.37;;;23.20;99.90;;;;;;5049094;28;20451;-73
2023/08/22 06:02:25;;;;;;;7.50;6.70;;;23.50;99.90;;;;;;5051372;28;20462;-71
2023/08/22 06:04:51;;;;;;;8.33;7.33;;;22.90;99.90;;;;;;5049751;28;20467;-72
2023/08/22 06:07:17;;;;;;;8.40;7.50;;;23.60;99.90;;;;;;5048984;28;20472;-72
2023/08/22 06:09:42;;;;;;;8.00;6.40;;;23.60;99.90;;;;;;5050886;28;20432;-72
2023/08/22 06:12:08;;;;;;;7.17;6.47;;;23.70;99.90;;;;;;5050830;28;20189;-71
2023/08/22 06:14:34;;;;;;;7.40;5.93;;;23.90;99.90;;;;;;5050231;28;20185;-71
2023/08/22 06:17:00;;;;;;;6.80;6.20;;;24.00;99.90;;;;;;5049555;28;20460;-73
2023/08/22 06:19:25;;;;;;;6.97;6.37;;;24.10;99.90;;;;;;5050529;28;20713;-72
2023/08/22 06:21:52;;;;;;;6.60;6.10;;;24.20;99.90;;;;;;5047804;28;20643;-74
2023/08/22 06:24:17;;;;;;;7.90;6.43;;;24.40;99.90;;;;;;5047739;28;20195;-72
2023/08/22 06:26:43;;;;;;;7.80;7.10;;;24.40;99.90;;;;;;5047178;28;20846;-71
2023/08/22 06:29:09;;;;;;;8.10;6.80;;;24.30;99.90;;;;;;5051923;28;20207;-74
2023/08/22 06:31:35;;;;;;;12.63;6.80;;;24.70;99.90;;;;;;5049182;28;20196;-70
2023/08/22 06:34:01;;;;;;;11.37;7.80;;;24.80;99.90;;;;;;5047598;28;20234;-72
2023/08/22 06:36:27;;;;;;;7.23;6.07;;;24.90;99.90;;;;;;5050177;28;20448;-71
2023/08/22 06:38:53;;;;;;;7.47;6.60;;;24.70;99.90;;;;;;5049828;28;20809;-72
2023/08/22 06:41:19;;;;;;;8.07;7.27;;;25.20;99.90;;;;;;5048124;28;20438;-73
2023/08/22 06:43:44;;;;;;;7.23;6.63;;;25.30;99.90;;;;;;5047650;28;20443;-71
2023/08/22 06:46:10;;;;;;;7.20;6.63;;;25.40;99.90;;;;;;5049635;28;20205;-72
2023/08/22 06:48:36;;;;;;;8.00;7.30;;;25.50;99.90;;;;;;5050384;28;20239;-71
2023/08/22 06:51:01;;;;;;;8.07;7.33;;;25.50;99.90;;;;;;5048519;28;20186;-71
2023/08/22 06:53:27;;;;;;;8.03;6.90;;;25.60;99.90;;;;;;5050478;28;20192;-70
2023/08/22 06:55:54;;;;;;;7.67;6.97;;;25.60;99.90;;;;;;5044427;28;20776;-70
2023/08/22 06:58:20;;;;;;;7.57;6.97;;;25.60;99.90;;;;;;5048486;28;20189;-73
2023/08/22 07:00:45;;;;;;;8.27;6.80;;;25.80;99.90;;;;;;5049701;28;20577;-71
2023/08/22 07:03:11;;;;;;;8.10;7.30;;;25.80;99.90;;;;;;5050147;28;20218;-70
2023/08/22 07:05:36;;;;;;;8.43;7.60;;;26.00;99.90;;;;;;5048735;28;20350;-70
2023/08/22 07:08:02;;;;;;;7.13;6.43;;;26.20;99.90;;;;;;5049854;28;20266;-70
2023/08/22 07:10:28;;;;;;;6.63;6.13;;;26.50;99.90;;;;;;5048787;28;20208;-71
2023/08/22 07:12:53;;;;;;;5.87;5.37;;;27.60;99.90;;;;;;5047069;28;20188;-71
2023/08/22 07:15:19;;;;;;;6.73;6.13;;;30.60;98.50;;;;;;5048969;28;20206;-74
2023/08/22 07:17:44;;;;;;;6.20;5.60;;;33.90;92.30;;;;;;5045412;28;20283;-72
2023/08/22 07:20:10;;;;;;;6.87;5.40;;;36.40;83.20;;;;;;5047929;28;20221;-72
2023/08/22 07:22:36;;;;;;;5.43;4.90;;;38.80;72.30;;;;;;5043136;28;20186;-73
2023/08/22 07:25:01;;;;;;;6.27;5.83;;;40.30;62.50;;;;;;5048433;28;20570;-75
2023/08/22 07:27:27;;;;;;;5.40;4.90;;;42.10;57.70;;;;;;5045739;28;20715;-72
2023/08/22 07:29:53;;;;;;;5.53;5.10;;;43.80;52.60;;;;;;5050545;28;20220;-73
2023/08/22 07:32:19;;;;;;;6.57;5.97;;;45.00;48.70;;;;;;5045328;28;20185;-72
2023/08/22 07:34:45;;;;;;;5.67;5.27;;;43.40;48.10;;;;;;5049580;28;20280;-75
2023/08/22 07:37:12;;;;;;;5.67;5.27;;;44.20;47.70;;;;;;5048903;28;20971;-74
2023/08/22 07:39:38;;;;;;;5.90;5.37;;;44.80;45.70;;;;;;5049031;28;20440;-74
2023/08/22 07:42:04;;;;;;;6.03;5.60;;;45.50;44.60;;;;;;5049156;28;20451;-72
2023/08/22 07:44:30;;;;;;;6.93;5.50;;;46.00;42.90;;;;;;5048225;28;20280;-71
2023/08/22 07:46:56;;;;;;;5.73;5.23;;;46.10;42.60;;;;;;5048672;28;20562;-72
2023/08/22 07:49:21;;;;;;;6.13;5.13;;;46.00;42.40;;;;;;5046434;28;20249;-77
2023/08/22 07:51:47;;;;;;;5.80;5.40;;;46.50;41.10;;;;;;5049052;28;20181;-73
2023/08/22 07:54:12;;;;;;;5.90;5.50;;;46.50;40.40;;;;;;5048561;28;20189;-73
2023/08/22 07:56:38;;;;;;;6.20;5.80;;;46.90;40.10;;;;;;5045910;28;20583;-74
2023/08/22 07:59:04;;;;;;;6.33;5.83;;;46.90;39.30;;;;;;5044890;28;20261;-76
2023/08/22 08:01:29;;;;;;;8.10;7.50;;;47.40;38.80;;;;;;5048881;28;20192;-72
2023/08/22 08:03:55;;;;;;;6.30;5.90;;;47.70;38.40;;;;;;5043491;28;20193;-72
2023/08/22 08:06:21;;;;;;;5.80;5.30;;;46.70;38.60;;;;;;5047080;28;20209;-72
2023/08/22 08:08:47;;;;;;;6.30;5.70;;;46.40;39.20;;;;;;5047505;28;20753;-73
2023/08/22 08:11:12;;;;;;;5.77;5.37;;;47.20;38.50;;;;;;5046492;28;20519;-72
2023/08/22 08:13:38;;;;;;;7.03;6.03;;;47.40;38.00;;;;;;5047986;28;20189;-74
2023/08/22 08:16:04;;;;;;;5.97;5.40;;;47.30;38.20;;;;;;5044409;28;20569;-73
2023/08/22 08:18:29;;;;;;;6.47;5.70;;;47.60;37.70;;;;;;5046846;28;20557;-76
2023/08/22 08:20:55;;;;;;;5.87;5.47;;;48.20;36.90;;;;;;5047685;28;20189;-72
2023/08/22 08:23:21;;;;;;;6.90;5.30;;;46.70;37.30;;;;;;5043167;28;20280;-72
2023/08/22 08:25:46;;;;;;;6.00;5.50;;;47.20;37.30;;;;;;5047357;28;20527;-72
2023/08/22 08:28:12;;;;;;;5.73;5.43;;;46.90;37.30;;;;;;5047295;28;20221;-75
2023/08/22 08:30:37;;;;;;;6.93;6.43;;;47.00;37.40;;;;;;5050617;28;20654;-72
2023/08/22 08:33:03;;;;;;;6.37;5.87;;;46.50;38.20;;;;;;5051664;28;20174;-75
2023/08/22 08:35:29;;;;;;;6.10;5.73;;;45.80;39.00;;;;;;5049757;28;20197;-72
2023/08/22 08:37:57;;;;;;;6.30;5.80;;;45.70;38.50;;;;;;5051175;28;20802;-75
2023/08/22 08:40:22;;;;;;;6.00;5.40;;;46.50;38.20;;;;;;5051010;28;20185;-72
2023/08/22 08:42:49;;;;;;;6.47;5.87;;;46.40;37.20;;;;;;5051910;28;20447;-71
2023/08/22 08:45:16;;;;;;;5.40;5.03;;;46.20;37.90;;;;;;5051934;28;20200;-72
2023/08/22 08:47:42;;;;;;;7.20;6.57;;;46.50;37.20;;;;;;5050755;28;20490;-72
2023/08/22 08:50:09;;;;;;;5.80;5.40;;;46.60;37.00;;;;;;5049184;28;20843;-77
2023/08/22 08:52:35;;;;;;;5.50;5.10;;;46.70;36.70;;;;;;5047605;28;20444;-73
2023/08/22 08:55:04;;;;;;;5.23;4.73;;;46.90;36.40;;;;;;5050736;28;20493;-73
2023/08/22 08:57:30;;;;;;;5.73;5.33;;;47.10;36.00;;;;;;5045990;28;20467;-73
2023/08/22 08:59:56;;;;;;;6.00;5.23;;;47.30;35.90;;;;;;5048674;28;20451;-73
2023/08/22 09:02:21;;;;;;;5.27;4.87;;;47.20;35.60;;;;;;5048793;28;20318;-73
2023/08/22 09:04:49;;;;;;;5.50;5.00;;;45.40;36.60;;;;;;5054594;28;20246;-73
2023/08/22 09:07:18;;;;;;;5.73;5.23;;;46.00;36.90;;;;;;5050149;28;20217;-73
2023/08/22 09:09:44;;;;;;;7.30;5.30;;;46.50;36.50;;;;;;5049089;28;20498;-71
2023/08/22 09:12:10;;;;;;;6.63;5.93;;;46.40;36.10;;;;;;5051204;28;20531;-75
2023/08/22 09:14:45;;;;;;;5.67;5.27;;;46.10;36.90;;;;;;5049019;28;20197;-73
2023/08/22 09:17:17;;;;;;;6.70;6.00;;;43.80;37.70;;;;;;5047193;28;20835;-73
2023/08/22 09:19:46;;;;;;;6.40;5.70;;;43.70;40.20;;;;;;5049140;28;20952;-72
2023/08/22 09:22:13;;;;;;;6.10;5.50;;;43.60;39.60;;;;;;5049132;28;20450;-71
2023/08/22 09:24:49;;;;;;;6.10;5.70;;;42.20;41.30;;;;;;5047717;28;20446;-73
2023/08/22 09:27:14;;;;;;;9.67;5.90;;;39.80;45.10;;;;;;5048528;28;20476;-70
2023/08/22 09:29:42;;;;;;;5.80;5.40;;;38.10;48.60;;;;;;5049331;28;20451;-71
2023/08/22 09:32:07;;;;;;;6.33;5.93;;;37.30;50.70;;;;;;5049735;28;20189;-71
2023/08/22 09:34:35;;;;;;;7.83;5.80;;;36.60;52.70;;;;;;5049219;28;20488;-74
2023/08/22 09:37:01;;;;;;;6.93;6.37;;;36.00;54.10;;;;;;5049217;28;20201;-73
2023/08/22 09:39:30;;;;;;;7.70;7.10;;;35.50;55.00;;;;;;5047847;28;20549;-75
2023/08/22 09:41:58;;;;;;;6.83;6.00;;;34.30;58.00;;;;;;5049194;28;20440;-73
2023/08/22 09:44:28;;;;;;;6.20;5.60;;;34.10;59.10;;;;;;5050161;28;20502;-73
2023/08/22 09:46:55;;;;;;;7.37;6.67;;;33.90;59.80;;;;;;5048770;28;20464;-71
2023/08/22 09:49:21;;;;;;;8.50;6.67;;;33.80;60.60;;;;;;5049973;28;20959;-71
2023/08/22 09:51:57;;;;;;;7.10;6.40;;;33.20;62.40;;;;;;5048729;28;21208;-72
2023/08/22 09:54:23;;;;;;;6.63;6.10;;;33.10;65.00;;;;;;5047299;28;20445;-71
2023/08/22 09:56:49;;;;;;;8.03;7.43;;;33.00;65.90;;;;;;5046025;28;20832;-75
2023/08/22 09:59:18;;;;;;;8.93;6.73;;;33.30;65.50;;;;;;5050025;28;20213;-70
2023/08/22 10:01:44;;;;;;;6.43;5.93;;;33.00;65.90;;;;;;5048111;28;20473;-73
2023/08/22 10:04:10;;;;;;;6.33;5.73;;;33.00;66.80;;;;;;5048701;28;20825;-71
2023/08/22 10:06:38;;;;;;;7.53;6.83;;;32.90;67.70;;;;;;5045303;28;20205;-72
2023/08/22 10:09:10;;;;;;;7.53;6.93;;;32.80;67.30;;;;;;5049944;28;20459;-74
2023/08/22 10:11:47;;;;;;;7.27;6.73;;;32.90;68.20;;;;;;5043689;28;20458;-73
2023/08/22 10:14:20;;;;;;;7.03;6.43;;;32.80;68.10;;;;;;5046137;28;20938;-72
2023/08/22 10:16:46;;;;;;;6.80;6.30;;;32.80;68.50;;;;;;5049072;28;20468;-77
2023/08/22 10:19:12;;;;;;;7.83;6.70;;;32.70;69.60;;;;;;5045700;28;20443;-72
2023/08/22 10:21:46;;;;;;;7.03;6.40;;;32.40;69.50;;;;;;5047628;28;20268;-71
2023/08/22 10:24:23;;;;;;;7.00;6.40;;;32.60;70.30;;;;;;5048337;28;20935;-72
2023/08/22 10:27:00;;;;;;;7.83;7.13;;;32.30;70.70;;;;;;5045236;28;20985;-72
2023/08/22 10:29:40;;;;;;;7.20;5.70;;;32.20;72.60;;;;;;5047548;28;20457;-72
2023/08/22 10:32:05;;;;;;;6.57;5.93;;;32.20;72.00;;;;;;5047720;28;20428;-72
2023/08/22 10:34:34;;;;;;;6.37;5.87;;;32.30;71.80;;;;;;5049214;28;20806;-74
2023/08/22 10:37:01;;;;;;;7.13;6.43;;;32.50;71.80;;;;;;5046732;28;20209;-73
2023/08/22 10:39:35;;;;;;;6.80;6.20;;;32.40;71.00;;;;;;5046606;28;20431;-73
2023/08/22 10:42:00;;;;;;;8.33;5.47;;;32.70;71.80;;;;;;5044972;28;20454;-73
2023/08/22 10:44:30;;;;;;;6.10;5.60;;;32.70;70.70;;;;;;5056303;28;20439;-73
2023/08/22 10:47:01;;;;;;;9.93;6.07;;;32.80;71.00;;;;;;5052126;28;20209;-74
2023/08/22 10:49:31;;;;;;;6.60;6.10;;;32.90;70.30;;;;;;5049768;28;20447;-71
2023/08/22 10:52:07;;;;;;;6.60;6.10;;;32.90;69.70;;;;;;5051621;28;20504;-72
2023/08/22 10:54:33;;;;;;;6.03;5.23;;;33.10;69.30;;;;;;5051450;28;20539;-75
2023/08/22 10:57:20;;;;;;;9.57;6.10;;;33.30;69.30;;;;;;5047687;28;20621;-73
2023/08/22 10:59:59;;;;;;;6.03;5.50;;;33.40;69.00;;;;;;5047292;28;20470;-72
2023/08/22 11:02:33;;;;;;;6.67;5.97;;;33.40;67.20;;;;;;5047836;28;20447;-73
2023/08/22 11:05:03;;;;;;;5.97;5.47;;;33.30;67.50;;;;;;5052605;28;20508;-72
2023/08/22 11:07:30;;;;;;;6.17;5.60;;;33.40;67.30;;;;;;5049167;28;20480;-72
2023/08/22 11:09:56;;;;;;;5.60;4.97;;;33.60;67.00;;;;;;5048625;28;20453;-74
2023/08/22 11:12:23;;;;;;;5.63;5.13;;;33.70;65.60;;;;;;5047394;28;20452;-75
2023/08/22 11:14:51;;;;;;;6.37;5.13;;;33.90;64.90;;;;;;5052760;28;20986;-72
2023/08/22 11:17:18;;;;;;;6.00;5.50;;;33.70;64.50;;;;;;5047618;28;20508;-71
2023/08/22 11:19:44;;;;;;;6.50;5.20;;;33.90;64.20;;;;;;5051287;28;20478;-72
2023/08/22 11:22:10;;;;;;;5.70;5.30;;;33.80;64.30;;;;;;5052669;28;20443;-71
2023/08/22 11:24:36;;;;;;;7.27;6.60;;;33.60;64.40;;;;;;5042596;28;20816;-72
2023/08/22 11:27:05;;;;;;;8.07;6.23;;;33.50;64.70;;;;;;5045656;28;20209;-71
2023/08/22 11:29:45;;;;;;;6.53;5.70;;;33.60;63.80;;;;;;5046189;28;20443;-73
2023/08/22 11:32:31;;;;;;;6.67;6.00;;;33.70;64.50;;;;;;5045268;28;20518;-72
2023/08/22 11:35:04;;;;;;;6.27;5.60;;;34.00;64.50;;;;;;5047790;28;20793;-73
2023/08/22 11:37:36;;;;;;;6.40;5.90;;;34.10;64.00;;;;;;5048535;28;20516;-72
2023/08/22 11:40:08;;;;;;;6.80;6.27;;;34.20;62.90;;;;;;5046350;28;20440;-75
2023/08/22 11:42:34;;;;;;;6.10;5.60;;;34.00;62.60;;;;;;5043932;28;20439;-73
2023/08/22 11:45:08;;;;;;;5.60;5.10;;;33.30;62.90;;;;;;5050245;28;20815;-74
2023/08/22 11:47:53;;;;;;;5.93;5.43;;;34.00;63.40;;;;;;5048525;28;20474;-71
2023/08/22 11:50:19;;;;;;;7.97;6.47;;;34.10;63.20;;;;;;5051121;28;20475;-73
2023/08/22 11:52:51;;;;;;;5.97;5.57;;;33.90;63.40;;;;;;5049823;28;20445;-71
2023/08/22 11:55:28;;;;;;;6.07;5.40;;;33.80;63.50;;;;;;5045588;28;20456;-74
2023/08/22 11:58:01;;;;;;;8.27;7.67;;;33.60;63.70;;;;;;5046501;28;20469;-72
2023/08/22 12:00:28;;;;;;;7.27;5.33;;;33.60;64.20;;;;;;5054501;28;20547;-71
2023/08/22 12:02:55;;;;;;;9.40;6.00;;;33.70;63.70;;;;;;5051838;28;20475;-71
2023/08/22 12:05:34;;;;;;;7.83;7.17;;;33.80;63.40;;;;;;5057624;28;20448;-71
2023/08/22 12:08:06;;;;;;;6.07;5.57;;;33.50;63.60;;;;;;5052766;28;20554;-74
2023/08/22 12:10:41;;;;;;;6.50;5.90;;;33.50;64.10;;;;;;5055867;28;20475;-70
2023/08/22 12:13:08;;;;;;;6.37;4.60;;;33.60;64.20;;;;;;5050311;28;20522;-72
2023/08/22 12:15:33;;;;;;;6.00;5.60;;;33.70;63.20;;;;;;5046919;28;20473;-72
2023/08/22 12:18:00;;;;;;;5.90;5.50;;;33.60;63.60;;;;;;5053659;28;20940;-70
2023/08/22 12:20:26;;;;;;;7.60;6.80;;;33.70;63.40;;;;;;5044307;28;20776;-72
2023/08/22 12:22:51;;;;;;;5.77;5.17;;;33.60;63.20;;;;;;5054090;28;20451;-72
2023/08/22 12:25:17;;;;;;;5.60;5.10;;;33.70;63.10;;;;;;5053283;28;20447;-73
2023/08/22 12:27:43;;;;;;;5.47;5.07;;;33.80;62.40;;;;;;5052881;28;20216;-71
2023/08/22 12:30:08;;;;;;;7.03;5.70;;;33.60;63.10;;;;;;5051414;28;20181;-72
2023/08/22 12:32:34;;;;;;;7.00;5.10;;;33.60;63.30;;;;;;5047006;28;20197;-71
2023/08/22 12:35:00;;;;;;;5.50;5.10;;;33.60;63.50;;;;;;5049935;28;20275;-74
2023/08/22 12:37:26;;;;;;;5.43;5.03;;;33.60;62.50;;;;;;5049755;28;20213;-72
2023/08/22 12:39:52;;;;;;;5.80;5.30;;;33.50;63.00;;;;;;5056126;28;20947;-72
2023/08/22 12:42:18;;;;;;;8.80;5.13;;;33.60;63.70;;;;;;5050098;28;20539;-72
2023/08/22 12:44:43;;;;;;;5.30;4.83;;;33.60;64.30;;;;;;5050058;28;20465;-71